Time;durP1;ratioP1;P1;durP2;ratioP2;P2;SDS_P1;SDS_P2;PMS_P1;PMS_P2;Temp;Humidity;BMP_temperature;BMP_pressure;BME280_temperature;BME280_humidity;BME280_pressure;Samples;Min_cycle;Max_cycle;Signal;HPM_P1;HPM_P2
2021/12/21 00:01:54;;;;;;;35.28;16.90;;;;;;;-1.29;100.00;102773.84;5037951;28;20041;-70
2021/12/21 00:04:19;;;;;;;35.45;17.83;;;;;;;-1.39;100.00;102769.56;5023734;28;20106;-70
2021/12/21 00:06:45;;;;;;;34.95;15.55;;;;;;;-1.63;100.00;102767.00;5023637;28;20072;-71
2021/12/21 00:09:10;;;;;;;32.38;14.48;;;;;;;-1.90;100.00;102777.16;5024519;28;20045;-70
2021/12/21 00:11:36;;;;;;;29.63;14.85;;;;;;;-2.02;100.00;102767.84;5023370;28;20033;-70
2021/12/21 00:14:18;;;;;;;31.73;14.20;;;;;;;-2.11;100.00;102766.22;5022618;28;20076;-70
2021/12/21 00:17:09;;;;;;;37.00;16.40;;;;;;;-1.83;100.00;102770.13;5022586;28;20041;-71
2021/12/21 00:23:05;;;;;;;31.30;14.38;;;;;;;-2.09;100.00;102782.94;5018910;28;20041;-71
2021/12/21 00:25:18;;;;;;;22.48;11.35;;;;;;;-2.08;100.00;102765.88;5018144;28;20053;-71
2021/12/21 00:27:46;;;;;;;23.05;12.32;;;;;;;-2.08;100.00;102768.56;5017690;28;20461;-71
2021/12/21 00:30:11;;;;;;;23.00;12.88;;;;;;;-2.10;100.00;102760.69;5016625;28;20144;-71
2021/12/21 00:32:37;;;;;;;19.90;11.00;;;;;;;-2.06;100.00;102761.19;5016106;28;20588;-71
2021/12/21 00:35:04;;;;;;;26.52;14.05;;;;;;;-2.06;100.00;102761.19;4997015;28;20391;-71
2021/12/21 00:37:29;;;;;;;26.25;13.10;;;;;;;-2.00;100.00;102768.53;5014716;28;20045;-68
2021/12/21 00:39:55;;;;;;;25.17;12.77;;;;;;;-2.01;100.00;102761.50;5012202;28;20095;-69
2021/12/21 00:42:20;;;;;;;25.48;13.07;;;;;;;-2.13;100.00;102760.19;5014385;28;20463;-68
2021/12/21 00:44:46;;;;;;;33.00;13.57;;;;;;;-2.24;100.00;102757.91;5014517;28;20848;-69
2021/12/21 00:47:14;;;;;;;33.53;14.88;;;;;;;-2.30;100.00;102765.63;5032179;28;20091;-68
2021/12/21 00:49:44;;;;;;;33.65;14.98;;;;;;;-2.33;100.00;102759.75;5033988;28;20392;-69
2021/12/21 00:52:10;;;;;;;39.33;14.05;;;;;;;-2.24;100.00;102758.75;5031775;28;20071;-69
2021/12/21 00:54:35;;;;;;;28.45;15.07;;;;;;;-2.33;100.00;102755.28;5031854;28;20048;-71
2021/12/21 00:57:04;;;;;;;33.22;14.00;;;;;;;-2.33;100.00;102751.75;5032415;28;20045;-69
2021/12/21 00:59:30;;;;;;;29.83;14.50;;;;;;;-2.37;100.00;102753.91;5032188;28;20041;-69
2021/12/21 01:01:55;;;;;;;35.88;15.63;;;;;;;-2.39;100.00;102745.22;5032025;28;20040;-69
2021/12/21 01:04:25;;;;;;;33.03;15.48;;;;;;;-2.38;100.00;102746.94;5031592;28;20068;-69
2021/12/21 01:07:02;;;;;;;31.58;14.20;;;;;;;-2.39;100.00;102753.25;5033348;28;20052;-69
2021/12/21 01:11:58;;;;;;;28.63;15.98;;;;;;;-2.57;100.00;102745.44;5031978;28;20084;-71
2021/12/21 01:17:30;;;;;;;31.52;15.60;;;;;;;-2.62;100.00;102749.63;4990134;28;20073;-71
2021/12/21 01:20:05;;;;;;;33.83;14.55;;;;;;;-2.65;100.00;102752.63;5021878;28;20053;-71
2021/12/21 01:28:01;;;;;;;35.45;14.80;;;;;;;-2.77;100.00;102747.63;5037097;28;20040;-71
2021/12/21 01:30:42;;;;;;;26.90;14.70;;;;;;;-2.92;100.00;102746.66;5035905;28;20045;-71
2021/12/21 01:35:53;;;;;;;32.60;14.90;;;;;;;-2.84;100.00;102752.00;5036698;28;20040;-71
2021/12/21 01:41:20;;;;;;;23.77;13.93;;;;;;;-2.82;100.00;102739.31;5035118;28;20615;-69
2021/12/21 01:43:44;;;;;;;33.67;15.15;;;;;;;-2.83;100.00;102748.31;5036208;28;20663;-70
2021/12/21 01:51:38;;;;;;;33.92;14.82;;;;;;;-2.88;100.00;102740.00;5016984;28;20455;-69
2021/12/21 01:54:03;;;;;;;39.10;14.75;;;;;;;-2.81;100.00;102735.63;5017158;28;20051;-70
2021/12/21 01:56:29;;;;;;;32.95;15.77;;;;;;;-2.72;100.00;102732.97;5015522;28;20461;-69
2021/12/21 01:58:54;;;;;;;31.33;13.85;;;;;;;-2.70;100.00;102730.97;5017861;28;20041;-70
2021/12/21 02:01:22;;;;;;;33.47;15.50;;;;;;;-2.77;100.00;102728.94;5018172;28;20050;-70
2021/12/21 02:03:49;;;;;;;36.55;15.45;;;;;;;-3.09;100.00;102736.97;5015773;28;20034;-70
2021/12/21 02:06:21;;;;;;;34.67;15.27;;;;;;;-3.17;100.00;102728.97;5015677;28;20084;-70
2021/12/21 02:08:48;;;;;;;31.63;14.05;;;;;;;-2.97;100.00;102727.63;5016929;28;20525;-70
2021/12/21 02:11:14;;;;;;;28.05;14.63;;;;;;;-3.07;100.00;102724.31;5014678;28;20070;-70
2021/12/21 02:13:45;;;;;;;30.35;14.07;;;;;;;-3.09;100.00;102715.63;5015101;28;20156;-70
2021/12/21 02:16:11;;;;;;;32.97;14.98;;;;;;;-3.08;100.00;102723.47;5017925;28;20412;-70
2021/12/21 02:19:02;;;;;;;31.92;15.20;;;;;;;-2.90;100.00;102723.31;5018124;28;20045;-70
2021/12/21 02:21:37;;;;;;;31.75;14.68;;;;;;;-2.85;100.00;102723.63;5017111;28;20480;-70
2021/12/21 02:24:08;;;;;;;39.13;17.25;;;;;;;-3.07;100.00;102724.31;5017223;28;20433;-70
2021/12/21 02:29:32;;;;;;;37.75;15.15;;;;;;;-2.91;100.00;102723.44;5035313;28;20566;-68
2021/12/21 02:31:58;;;;;;;27.80;13.32;;;;;;;-2.89;100.00;102726.78;5015065;28;20343;-68
2021/12/21 02:34:24;;;;;;;33.00;14.48;;;;;;;-3.00;100.00;102725.28;5014128;28;20041;-69
2021/12/21 02:36:52;;;;;;;30.60;14.63;;;;;;;-2.98;100.00;102718.78;4997490;28;20033;-68
2021/12/21 02:39:18;;;;;;;32.40;13.85;;;;;;;-2.90;100.00;102720.63;5013541;28;20246;-70
2021/12/21 02:41:44;;;;;;;26.15;14.27;;;;;;;-3.10;100.00;102727.31;5014144;28;20083;-68
2021/12/21 02:44:10;;;;;;;31.88;13.77;;;;;;;-3.19;100.00;102721.97;5015799;28;20104;-68
2021/12/21 02:46:39;;;;;;;30.23;14.18;;;;;;;-3.13;100.00;102719.63;5029763;28;20052;-69
2021/12/21 02:49:08;;;;;;;25.35;13.05;;;;;;;-3.01;100.00;102712.97;5008220;28;20045;-68
2021/12/21 02:51:36;;;;;;;27.58;14.38;;;;;;;-2.93;100.00;102710.28;5013183;28;20103;-69
2021/12/21 02:54:02;;;;;;;22.45;12.60;;;;;;;-2.96;100.00;102713.28;5015250;28;20608;-68
2021/12/21 02:56:27;;;;;;;29.23;13.75;;;;;;;-3.02;100.00;102711.31;5014478;28;20054;-68
2021/12/21 02:58:53;;;;;;;23.20;12.25;;;;;;;-2.96;100.00;102706.13;5014101;28;20156;-68
2021/12/21 03:01:18;;;;;;;21.42;12.63;;;;;;;-3.03;100.00;102709.63;5013246;28;20041;-68
2021/12/21 03:03:44;;;;;;;25.33;12.80;;;;;;;-3.02;100.00;102712.13;5033413;28;20667;-68
2021/12/21 03:06:22;;;;;;;19.75;12.18;;;;;;;-3.12;100.00;102706.09;5031744;28;20043;-68
2021/12/21 03:08:56;;;;;;;21.40;11.48;;;;;;;-3.21;100.00;102696.44;5032590;28;20359;-68
2021/12/21 03:11:36;;;;;;;24.50;12.70;;;;;;;-3.27;100.00;102699.78;5033800;28;20060;-68
2021/12/21 03:14:04;;;;;;;25.27;12.55;;;;;;;-3.21;100.00;102696.44;5034444;28;20470;-68
2021/12/21 03:16:32;;;;;;;30.90;14.75;;;;;;;-3.31;100.00;102695.78;5033180;28;20371;-70
2021/12/21 03:18:59;;;;;;;26.10;12.43;;;;;;;-3.21;100.00;102697.28;5035116;28;20911;-70
2021/12/21 03:21:24;;;;;;;24.73;12.43;;;;;;;-3.28;100.00;102696.28;5032961;28;20037;-70
2021/12/21 03:23:50;;;;;;;33.53;14.65;;;;;;;-3.29;100.00;102699.94;5034447;28;20603;-70
2021/12/21 03:26:15;;;;;;;26.58;13.82;;;;;;;-3.23;100.00;102703.78;5034572;28;20047;-70
2021/12/21 03:28:40;;;;;;;29.92;14.45;;;;;;;-3.28;100.00;102698.94;5016532;28;20065;-70
2021/12/21 03:31:06;;;;;;;28.13;13.32;;;;;;;-3.34;100.00;102696.94;5034602;28;20768;-70
2021/12/21 03:33:33;;;;;;;25.38;13.52;;;;;;;-3.15;100.00;102695.78;5032363;28;20052;-70
2021/12/21 03:36:00;;;;;;;27.65;14.20;;;;;;;-3.30;100.00;102700.94;5032681;28;20037;-69
2021/12/21 03:38:27;;;;;;;23.13;13.07;;;;;;;-3.25;100.00;102695.13;5016056;28;20044;-69
2021/12/21 03:41:00;;;;;;;24.85;13.50;;;;;;;-3.14;100.00;102697.47;5034345;28;20588;-70
2021/12/21 03:43:26;;;;;;;26.23;13.30;;;;;;;-3.21;100.00;102691.94;5034168;28;20149;-70
2021/12/21 03:46:00;;;;;;;25.50;13.85;;;;;;;-3.06;100.00;102688.59;5034276;28;20040;-70
2021/12/21 03:48:25;;;;;;;33.20;14.63;;;;;;;-3.01;100.00;102691.59;5031436;28;20135;-70
2021/12/21 03:50:50;;;;;;;25.27;13.48;;;;;;;-3.24;100.00;102697.59;5011956;28;20562;-70
2021/12/21 03:53:17;;;;;;;28.17;12.88;;;;;;;-3.52;100.00;102693.56;5012679;28;20859;-70
2021/12/21 03:55:43;;;;;;;25.42;11.70;;;;;;;-3.65;100.00;102700.22;5014384;28;20152;-69
2021/12/21 03:58:08;;;;;;;19.35;9.75;;;;;;;-3.76;100.00;102705.88;5012261;28;20083;-70
2021/12/21 04:00:33;;;;;;;19.08;8.70;;;;;;;-3.73;100.00;102702.88;5012372;28;20413;-70
2021/12/21 04:02:59;;;;;;;17.90;10.52;;;;;;;-3.71;100.00;102703.56;5025297;28;20114;-70
2021/12/21 04:05:24;;;;;;;23.17;11.25;;;;;;;-3.62;100.00;102707.06;5033352;28;20051;-70
2021/12/21 04:07:50;;;;;;;23.60;11.27;;;;;;;-3.66;100.00;102703.06;5032029;28;20047;-70
2021/12/21 04:10:15;;;;;;;29.95;15.43;;;;;;;-3.44;100.00;102690.91;5032454;28;20456;-70
2021/12/21 04:12:41;;;;;;;30.20;14.32;;;;;;;-3.29;100.00;102699.09;5034238;28;20072;-70
2021/12/21 04:15:07;;;;;;;25.58;13.55;;;;;;;-3.31;100.00;102696.63;5014787;28;20139;-70
2021/12/21 04:17:32;;;;;;;29.98;15.75;;;;;;;-3.48;100.00;102689.59;5032385;28;20362;-70
2021/12/21 04:19:58;;;;;;;34.92;16.00;;;;;;;-3.39;100.00;102688.59;5031609;28;20053;-70
2021/12/21 04:22:23;;;;;;;36.25;18.45;;;;;;;-3.42;100.00;102689.75;5033693;28;20126;-70
2021/12/21 04:24:49;;;;;;;39.05;16.88;;;;;;;-3.43;100.00;102693.44;5033159;28;20037;-70
2021/12/21 04:27:15;;;;;;;30.25;15.60;;;;;;;-3.28;100.00;102688.28;5032669;28;20052;-70
2021/12/21 04:29:41;;;;;;;36.90;16.23;;;;;;;-3.19;100.00;102689.94;5033567;28;20147;-70
2021/12/21 04:32:07;;;;;;;32.35;16.33;;;;;;;-3.23;100.00;102693.97;5033280;28;20040;-70
2021/12/21 04:34:34;;;;;;;30.00;15.05;;;;;;;-3.23;100.00;102693.09;5031388;28;20051;-72
2021/12/21 04:37:00;;;;;;;35.13;15.32;;;;;;;-3.22;100.00;102684.13;5016718;28;20049;-70
2021/12/21 04:41:53;;;;;;;39.47;16.85;;;;;;;-3.41;100.00;102675.41;5013128;28;20037;-70
2021/12/21 04:44:19;;;;;;;35.47;16.15;;;;;;;-3.45;100.00;102683.94;5012644;28;20501;-69
2021/12/21 04:46:44;;;;;;;36.20;17.15;;;;;;;-3.32;100.00;102684.25;5015631;28;20045;-69
2021/12/21 04:49:10;;;;;;;30.15;16.35;;;;;;;-3.37;100.00;102681.28;5020174;28;20121;-69
2021/12/21 04:51:35;;;;;;;38.03;17.42;;;;;;;-3.56;100.00;102682.41;5032829;28;20036;-69
2021/12/21 04:54:01;;;;;;;31.65;14.52;;;;;;;-3.57;100.00;102690.59;5032782;28;20488;-69
2021/12/21 04:56:26;;;;;;;28.35;14.70;;;;;;;-3.52;100.00;102685.56;5033220;28;20607;-69
2021/12/21 04:58:51;;;;;;;29.23;15.52;;;;;;;-3.45;100.00;102679.44;5027112;28;20033;-69
2021/12/21 05:01:17;;;;;;;48.40;19.70;;;;;;;-3.63;100.00;102680.59;4994833;28;20159;-69
2021/12/21 05:03:42;;;;;;;44.78;18.98;;;;;;;-3.63;100.00;102677.91;5025602;28;20037;-69
2021/12/21 05:06:08;;;;;;;43.60;19.80;;;;;;;-3.50;100.00;102675.59;5013192;28;20081;-69
2021/12/21 05:08:37;;;;;;;38.22;18.17;;;;;;;-3.73;100.00;102672.72;4994937;28;20041;-69
2021/12/21 05:11:05;;;;;;;39.97;17.83;;;;;;;-3.60;100.00;102680.25;5012302;28;20156;-69
2021/12/21 05:13:34;;;;;;;45.25;19.80;;;;;;;-3.59;100.00;102679.25;5013249;28;20037;-69
2021/12/21 05:15:59;;;;;;;46.03;19.83;;;;;;;-3.62;100.00;102676.91;5019105;28;20181;-69
2021/12/21 05:18:25;;;;;;;38.13;18.70;;;;;;;-3.63;100.00;102670.75;5002471;28;20038;-69
2021/12/21 05:20:51;;;;;;;52.20;21.10;;;;;;;-3.59;100.00;102664.06;5011928;28;20178;-68
2021/12/21 05:23:17;;;;;;;74.50;28.17;;;;;;;-3.53;100.00;102665.25;5014998;28;20041;-69
2021/12/21 05:25:42;;;;;;;114.28;38.53;;;;;;;-3.55;100.00;102669.91;5002795;28;20283;-69
2021/12/21 05:28:09;;;;;;;125.82;38.17;;;;;;;-3.44;100.00;102666.91;5015956;28;20068;-69
2021/12/21 05:30:36;;;;;;;73.20;29.75;;;;;;;-3.67;100.00;102672.88;5013672;28;20081;-69
2021/12/21 05:33:02;;;;;;;52.63;22.88;;;;;;;-3.67;100.00;102670.22;5011103;28;20151;-69
2021/12/21 05:35:28;;;;;;;51.80;23.08;;;;;;;-3.56;100.00;102670.91;5008406;28;20037;-69
2021/12/21 05:37:58;;;;;;;51.67;21.23;;;;;;;-3.61;100.00;102674.06;5011264;28;20041;-68
2021/12/21 05:40:32;;;;;;;47.05;21.48;;;;;;;-3.65;100.00;102678.06;5012478;28;20076;-69
2021/12/21 05:42:57;;;;;;;44.42;20.42;;;;;;;-3.65;100.00;102673.56;5013377;28;20099;-69
2021/12/21 05:45:22;;;;;;;46.35;19.48;;;;;;;-3.56;100.00;102670.91;5014088;28;20040;-69
2021/12/21 05:47:48;;;;;;;42.88;19.13;;;;;;;-3.50;100.00;102670.25;5029830;28;20570;-69
2021/12/21 05:50:17;;;;;;;42.88;22.15;;;;;;;-3.59;100.00;102682.75;5020213;28;20041;-68
2021/12/21 05:52:43;;;;;;;47.72;20.55;;;;;;;-3.68;100.00;102686.41;5011755;28;20459;-69
2021/12/21 05:55:09;;;;;;;41.58;18.45;;;;;;;-3.59;100.00;102682.75;5011684;28;20060;-69
2021/12/21 05:57:35;;;;;;;40.95;19.73;;;;;;;-3.68;100.00;102681.91;5013264;28;20136;-69
2021/12/21 06:00:01;;;;;;;37.00;16.77;;;;;;;-4.07;100.00;102684.31;5009958;28;20041;-69
2021/12/21 06:02:27;;;;;;;33.13;17.10;;;;;;;-3.94;100.00;102684.66;5013471;28;20171;-68
2021/12/21 06:04:52;;;;;;;51.33;19.88;;;;;;;-4.03;100.00;102690.97;5014904;28;20149;-68
2021/12/21 06:07:18;;;;;;;36.20;18.00;;;;;;;-3.97;100.00;102681.50;5013051;28;20053;-69
2021/12/21 06:09:46;;;;;;;58.35;19.63;;;;;;;-3.76;100.00;102689.88;5011201;28;20061;-69
2021/12/21 06:12:30;;;;;;;45.25;20.48;;;;;;;-3.77;100.00;102685.53;5013214;28;20148;-69
2021/12/21 06:27:48;;;;;;;43.80;18.95;;;;;;;-3.60;100.00;102674.91;5025188;28;20327;-68
2021/12/21 06:30:14;;;;;;;42.05;18.30;;;;;;;-3.76;100.00;102679.19;5016069;28;20045;-69
2021/12/21 06:32:40;;;;;;;36.92;18.40;;;;;;;-3.88;100.00;102681.34;5016886;28;20053;-69
2021/12/21 06:35:06;;;;;;;37.67;19.30;;;;;;;-3.88;100.00;102688.50;5016956;28;20095;-68
2021/12/21 06:37:32;;;;;;;41.28;20.77;;;;;;;-3.79;100.00;102679.53;5015251;28;20048;-70
2021/12/21 06:39:57;;;;;;;43.88;19.38;;;;;;;-3.81;100.00;102678.03;5018491;28;20378;-68
2021/12/21 06:42:23;;;;;;;43.45;18.30;;;;;;;-3.82;100.00;102681.69;5017638;28;20904;-69
2021/12/21 06:44:54;;;;;;;43.33;18.45;;;;;;;-3.80;100.00;102677.03;5016832;28;20060;-68
2021/12/21 06:52:49;;;;;;;38.63;17.25;;;;;;;-4.00;100.00;102679.16;5015925;28;20045;-69
2021/12/21 06:55:15;;;;;;;35.35;16.70;;;;;;;-4.07;100.00;102678.97;5016456;28;20472;-69
2021/12/21 06:57:43;;;;;;;42.13;16.33;;;;;;;-4.10;100.00;102674.81;5013418;28;20162;-68
2021/12/21 07:00:14;;;;;;;34.85;16.80;;;;;;;-4.06;100.00;102685.13;5015809;28;20038;-69
2021/12/21 07:02:40;;;;;;;33.97;17.77;;;;;;;-4.34;100.00;102683.50;5012680;28;20115;-68
2021/12/21 07:05:07;;;;;;;37.67;18.05;;;;;;;-4.16;100.00;102685.25;5012291;28;20564;-68
2021/12/21 07:07:33;;;;;;;43.05;19.02;;;;;;;-4.16;100.00;102678.13;5014211;28;20554;-68
2021/12/21 07:10:02;;;;;;;42.25;20.10;;;;;;;-4.18;100.00;102687.25;5015761;28;20057;-68
2021/12/21 07:18:10;;;;;;;39.45;18.73;;;;;;;-3.96;100.00;102681.31;5015535;28;20275;-68
2021/12/21 07:20:36;;;;;;;37.40;19.67;;;;;;;-3.98;100.00;102678.00;5015188;28;20053;-70
2021/12/21 07:23:02;;;;;;;40.75;19.02;;;;;;;-4.03;100.00;102684.81;5014721;28;20836;-68
2021/12/21 07:25:28;;;;;;;40.95;20.13;;;;;;;-3.92;100.00;102687.19;5015456;28;20038;-68
2021/12/21 07:27:54;;;;;;;41.30;21.15;;;;;;;-3.95;100.00;102676.84;5014126;28;20532;-68
2021/12/21 07:30:20;;;;;;;41.67;19.58;;;;;;;-3.87;100.00;102684.84;5015177;28;20033;-68
2021/12/21 07:32:46;;;;;;;42.70;20.23;;;;;;;-3.94;100.00;102683.84;5014818;28;20140;-69
2021/12/21 07:35:11;;;;;;;38.90;19.13;;;;;;;-3.86;100.00;102681.19;5012636;28;20835;-68
2021/12/21 07:37:37;;;;;;;41.45;18.70;;;;;;;-3.86;100.00;102689.19;5014586;28;20064;-69
2021/12/21 07:40:03;;;;;;;42.03;19.30;;;;;;;-3.92;100.00;102697.84;5014144;28;20071;-69
2021/12/21 07:42:29;;;;;;;36.05;18.33;;;;;;;-4.03;100.00;102690.97;5013600;28;20048;-69
2021/12/21 07:44:54;;;;;;;32.67;17.27;;;;;;;-4.12;100.00;102698.09;5013323;28;20049;-69
2021/12/21 07:47:20;;;;;;;33.40;17.60;;;;;;;-4.08;100.00;102697.78;5031632;28;20037;-69
2021/12/21 07:49:46;;;;;;;47.03;18.80;;;;;;;-4.19;100.00;102698.88;5018496;28;20044;-69
2021/12/21 07:52:12;;;;;;;37.22;19.08;;;;;;;-4.12;100.00;102698.09;5013302;28;20087;-69
2021/12/21 07:54:37;;;;;;;36.15;17.45;;;;;;;-4.13;100.00;102701.75;5013030;28;20993;-69
2021/12/21 07:57:06;;;;;;;34.95;16.35;;;;;;;-4.12;100.00;102703.44;5014061;28;20049;-69
2021/12/21 07:59:32;;;;;;;32.22;17.88;;;;;;;-4.10;100.00;102711.28;5012438;28;20045;-69
2021/12/21 08:01:58;;;;;;;34.45;18.08;;;;;;;-3.98;100.00;102703.81;5016410;28;20495;-69
2021/12/21 08:04:27;;;;;;;32.13;17.60;;;;;;;-3.92;100.00;102703.16;5033794;28;20036;-69
2021/12/21 08:06:55;;;;;;;37.85;18.33;;;;;;;-3.96;100.00;102707.13;5014445;28;20045;-69
2021/12/21 08:09:21;;;;;;;38.95;17.48;;;;;;;-3.86;100.00;102705.19;5032590;28;20044;-69
2021/12/21 08:14:30;;;;;;;33.90;18.85;;;;;;;-3.91;100.00;102704.81;5032464;28;20140;-69
2021/12/21 08:16:56;;;;;;;38.97;18.98;;;;;;;-4.01;100.00;102712.97;5033213;28;20041;-69
2021/12/21 08:19:21;;;;;;;34.47;18.33;;;;;;;-4.03;100.00;102706.13;5032712;28;20041;-69
2021/12/21 08:21:46;;;;;;;33.05;17.35;;;;;;;-4.07;100.00;102705.63;5032876;28;20041;-69
2021/12/21 08:24:12;;;;;;;31.60;17.70;;;;;;;-4.17;100.00;102710.22;5033213;28;20493;-69
2021/12/21 08:26:37;;;;;;;29.63;16.98;;;;;;;-4.22;100.00;102713.34;5032129;28;20044;-69
2021/12/21 08:29:03;;;;;;;39.22;18.77;;;;;;;-4.14;100.00;102724.06;5030136;28;20323;-69
2021/12/21 08:31:28;;;;;;;39.50;18.33;;;;;;;-4.15;100.00;102724.22;5030482;28;20063;-69
2021/12/21 08:33:54;;;;;;;38.10;19.30;;;;;;;-4.11;100.00;102717.56;5030827;28;20088;-69
2021/12/21 08:36:19;;;;;;;36.33;17.85;;;;;;;-4.07;100.00;102720.75;5031860;28;20033;-69
2021/12/21 08:38:45;;;;;;;32.25;17.05;;;;;;;-4.00;100.00;102729.78;5032720;28;20037;-69
2021/12/21 08:41:10;;;;;;;28.23;17.38;;;;;;;-3.68;100.00;102721.88;5031204;28;20333;-70
2021/12/21 08:43:36;;;;;;;30.48;17.55;;;;;;;-3.74;100.00;102727.88;5031354;28;20045;-69
2021/12/21 08:46:03;;;;;;;25.80;15.85;;;;;;;-3.55;100.00;102725.91;5032560;28;20037;-69
2021/12/21 08:48:29;;;;;;;27.67;15.63;;;;;;;-3.51;100.00;102730.75;5030229;28;20453;-69
2021/12/21 08:50:55;;;;;;;27.00;16.23;;;;;;;-3.60;100.00;102728.25;4994997;28;20048;-69
2021/12/21 08:53:23;;;;;;;27.10;15.82;;;;;;;-3.51;100.00;102727.25;4995099;28;20829;-70
2021/12/21 08:55:51;;;;;;;32.15;17.73;;;;;;;-3.30;100.00;102722.28;4994195;28;20452;-69
2021/12/21 08:58:17;;;;;;;38.65;19.17;;;;;;;-3.24;100.00;102729.63;5010568;28;20056;-69
2021/12/21 09:00:43;;;;;;;48.95;23.63;;;;;;;-3.27;100.00;102724.63;5013822;28;20037;-70
2021/12/21 09:03:09;;;;;;;44.15;22.48;;;;;;;-3.07;100.00;102729.63;5025841;28;20086;-70
2021/12/21 09:05:36;;;;;;;45.33;21.55;;;;;;;-3.12;100.00;102721.28;5031502;28;20413;-69
2021/12/21 09:08:03;;;;;;;44.10;21.10;;;;;;;-3.01;100.00;102723.63;5031749;28;20669;-70
2021/12/21 09:10:30;;;;;;;37.17;20.98;;;;;;;-2.83;100.00;102726.94;5032981;28;20441;-70
2021/12/21 09:12:56;;;;;;;43.75;22.95;;;;;;;-2.75;100.00;102729.63;5031391;28;20068;-70
2021/12/21 09:15:22;;;;;;;39.15;21.80;;;;;;;-2.61;100.00;102716.59;5031353;28;20140;-69
2021/12/21 09:17:48;;;;;;;37.53;21.35;;;;;;;-2.61;100.00;102724.59;5030943;28;20814;-70
2021/12/21 09:20:17;;;;;;;47.53;20.67;;;;;;;-2.47;100.00;102725.72;5033283;28;20283;-70
2021/12/21 09:22:42;;;;;;;35.90;19.88;;;;;;;-2.53;100.00;102729.91;5030708;28;20406;-70
2021/12/21 09:25:09;;;;;;;37.78;20.30;;;;;;;-2.55;100.00;102731.94;5030421;28;20041;-70
2021/12/21 09:27:35;;;;;;;38.22;19.80;;;;;;;-2.31;100.00;102726.50;5031928;28;20461;-70
2021/12/21 09:30:01;;;;;;;39.20;21.88;;;;;;;-2.37;100.00;102727.22;5028496;28;20037;-70
2021/12/21 09:32:26;;;;;;;36.08;20.13;;;;;;;-2.43;100.00;102733.25;5012734;28;20051;-70
2021/12/21 09:34:52;;;;;;;35.63;21.33;;;;;;;-2.24;100.00;102720.47;5011020;28;20030;-70
2021/12/21 09:37:20;;;;;;;36.72;21.52;;;;;;;-2.22;100.00;102721.16;5012762;28;20092;-70
2021/12/21 09:39:49;;;;;;;35.55;20.35;;;;;;;-2.11;100.00;102731.47;5013486;28;20501;-70
2021/12/21 09:42:17;;;;;;;39.45;21.73;;;;;;;-2.17;100.00;102727.66;5011124;28;20080;-71
2021/12/21 09:44:43;;;;;;;41.40;22.40;;;;;;;-2.03;100.00;102723.44;5011876;28;20065;-70
2021/12/21 09:47:10;;;;;;;38.08;21.63;;;;;;;-2.04;100.00;102721.75;5030120;28;20183;-70
2021/12/21 09:49:37;;;;;;;42.15;22.77;;;;;;;-2.07;100.00;102717.56;5036464;28;20668;-71
2021/12/21 09:52:05;;;;;;;47.28;24.63;;;;;;;-2.08;100.00;102720.44;5036840;28;20124;-70
2021/12/21 09:54:32;;;;;;;41.08;22.98;;;;;;;-2.18;100.00;102717.97;5036058;28;20453;-69
2021/12/21 09:56:58;;;;;;;39.60;23.40;;;;;;;-2.19;100.00;102716.28;5036079;28;20040;-70
2021/12/21 09:59:25;;;;;;;48.58;24.75;;;;;;;-1.89;100.00;102713.81;5036935;28;20401;-70
2021/12/21 10:01:51;;;;;;;46.17;24.30;;;;;;;-1.96;100.00;102707.50;5033128;28;20497;-70
2021/12/21 10:04:17;;;;;;;41.00;23.27;;;;;;;-1.89;100.00;102698.63;5016913;28;20064;-70
2021/12/21 10:06:47;;;;;;;45.92;25.25;;;;;;;-1.85;100.00;102694.59;5016495;28;20375;-70
2021/12/21 10:09:13;;;;;;;41.72;24.58;;;;;;;-1.69;100.00;102687.47;5014538;28;20044;-70
2021/12/21 10:11:44;;;;;;;43.15;23.90;;;;;;;-1.88;100.00;102688.75;5014997;28;20095;-70
2021/12/21 10:14:10;;;;;;;42.58;24.77;;;;;;;-1.73;100.00;102702.22;5016355;28;20823;-70
2021/12/21 10:16:35;;;;;;;52.63;25.42;;;;;;;-1.84;100.00;102706.94;5014913;28;20075;-70
2021/12/21 10:19:01;;;;;;;45.40;25.15;;;;;;;-1.64;100.00;102690.44;5016847;28;20604;-70
2021/12/21 10:21:26;;;;;;;52.72;27.27;;;;;;;-1.43;100.00;102703.19;5017651;28;20030;-70
2021/12/21 10:23:54;;;;;;;57.03;27.25;;;;;;;-1.29;100.00;102693.56;5016917;28;20052;-70
2021/12/21 10:26:23;;;;;;;56.10;26.80;;;;;;;-1.21;100.00;102696.19;5017334;28;20055;-70
2021/12/21 10:28:51;;;;;;;50.58;28.05;;;;;;;-1.05;100.00;102698.69;5015281;28;20045;-69
2021/12/21 10:31:27;;;;;;;56.88;28.63;;;;;;;-1.07;100.00;102692.72;5016336;28;20049;-69
2021/12/21 10:33:54;;;;;;;48.00;27.02;;;;;;;-1.19;100.00;102694.16;5014883;28;20648;-69
2021/12/21 10:36:19;;;;;;;52.88;26.80;;;;;;;-1.08;100.00;102696.38;5014720;28;20510;-69
2021/12/21 10:38:51;;;;;;;55.45;29.02;;;;;;;-1.00;100.00;102690.97;5016681;28;20045;-69
2021/12/21 10:41:20;;;;;;;55.27;27.47;;;;;;;-1.03;100.00;102682.47;5015340;28;20186;-70
2021/12/21 10:44:00;;;;;;;49.50;26.98;;;;;;;-1.16;100.00;102683.09;5020836;28;20045;-69
2021/12/21 10:46:28;;;;;;;54.22;28.70;;;;;;;-1.20;100.00;102682.59;5037526;28;20083;-69
2021/12/21 10:49:17;;;;;;;54.97;28.42;;;;;;;-0.95;100.00;102675.19;5037170;28;20220;-70
2021/12/21 10:52:04;;;;;;;63.25;28.17;;;;;;;-0.87;100.00;102670.75;5027167;28;20077;-70
2021/12/21 10:54:42;;;;;;;55.53;27.27;;;;;;;-0.86;100.00;102680.47;5023664;28;20049;-70
2021/12/21 10:57:19;;;;;;;52.50;29.02;;;;;;;-0.88;100.00;102679.81;5025759;28;20034;-72
2021/12/21 10:59:48;;;;;;;53.55;26.67;;;;;;;-0.78;100.00;102680.41;5022351;28;20048;-71
2021/12/21 11:02:18;;;;;;;52.97;27.67;;;;;;;-0.57;100.00;102672.47;5030848;28;20088;-70
2021/12/21 11:04:47;;;;;;;53.70;27.27;;;;;;;-0.56;100.00;102662.56;5045054;28;20107;-70
2021/12/21 11:07:27;;;;;;;47.45;25.65;;;;;;;-0.59;100.00;102663.75;5042193;28;20216;-72
2021/12/21 11:10:15;;;;;;;49.88;25.75;;;;;;;-0.56;100.00;102658.03;5044948;28;20185;-71
2021/12/21 11:12:54;;;;;;;54.65;27.15;;;;;;;-0.49;100.00;102661.66;5043644;28;20047;-70
2021/12/21 11:15:22;;;;;;;49.90;27.65;;;;;;;-0.42;100.00;102663.59;5042959;28;20041;-71
2021/12/21 11:17:48;;;;;;;50.08;26.58;;;;;;;-0.52;100.00;102658.53;5044907;28;20054;-70
2021/12/21 11:20:15;;;;;;;58.78;26.73;;;;;;;-0.47;100.00;102651.59;5046319;28;20124;-71
2021/12/21 11:22:43;;;;;;;50.72;26.58;;;;;;;-0.46;100.00;102653.25;5047546;28;20067;-70
2021/12/21 11:25:10;;;;;;;53.50;29.13;;;;;;;-0.60;100.00;102656.75;5034323;28;20045;-72
2021/12/21 11:27:38;;;;;;;60.92;31.17;;;;;;;-0.60;100.00;102640.69;5031184;28;20041;-72
2021/12/21 11:30:07;;;;;;;64.70;32.40;;;;;;;-0.50;100.00;102646.56;5027614;28;20041;-70
2021/12/21 11:32:39;;;;;;;57.90;29.67;;;;;;;-0.62;100.00;102642.69;5029645;28;20052;-71
2021/12/21 11:37:36;;;;;;;70.20;32.45;;;;;;;-0.16;100.00;102639.81;5024963;28;20152;-70
2021/12/21 11:40:04;;;;;;;59.40;31.98;;;;;;;0.07;100.00;102636.16;5026312;28;20151;-71
2021/12/21 11:42:32;;;;;;;63.58;32.13;;;;;;;0.05;100.00;102633.63;5027711;28;20045;-71
2021/12/21 11:45:14;;;;;;;63.33;31.73;;;;;;;-0.06;100.00;102628.75;5026034;28;20103;-71
2021/12/21 11:47:50;;;;;;;66.20;33.67;;;;;;;0.13;100.00;102624.66;5048753;28;20126;-70
2021/12/21 11:50:16;;;;;;;70.25;32.15;;;;;;;0.14;100.00;102613.72;5029710;28;20041;-71
2021/12/21 11:52:49;;;;;;;63.00;33.90;;;;;;;0.31;100.00;102617.00;5028716;28;20037;-70
2021/12/21 11:55:17;;;;;;;63.28;33.63;;;;;;;0.19;100.00;102613.97;5028127;28;20048;-70
2021/12/21 11:57:49;;;;;;;60.88;33.40;;;;;;;0.23;100.00;102617.09;5022860;28;20511;-70
2021/12/21 12:00:18;;;;;;;61.50;32.05;;;;;;;0.36;100.00;102611.06;5025076;28;20060;-71
2021/12/21 12:02:45;;;;;;;63.42;31.00;;;;;;;0.57;100.00;102604.84;5026708;28;20440;-71
2021/12/21 12:05:20;;;;;;;59.85;30.73;;;;;;;0.60;100.00;102605.28;5030087;28;20041;-71